Time;durP1;ratioP1;P1;durP2;ratioP2;P2;SDS_P1;SDS_P2;PMS_P1;PMS_P2;Temp;Humidity;BMP_temperature;BMP_pressure;BME280_temperature;BME280_humidity;BME280_pressure;Samples;Min_cycle;Max_cycle;Signal;HPM_P1;HPM_P2
2024/01/10 00:01:18;;;;;;;0.10;0.10;;;-4.20;98.50;;;;;;5022293;28;20846;-77
2024/01/10 00:03:44;;;;;;;0.17;0.17;;;-4.20;98.50;;;;;;5022880;28;20032;-78
2024/01/10 00:06:10;;;;;;;0.38;0.38;;;-4.20;98.60;;;;;;5023888;28;20268;-78
2024/01/10 00:08:37;;;;;;;0.10;0.10;;;-4.30;98.70;;;;;;5022922;28;20847;-78
2024/01/10 00:11:03;;;;;;;0.10;0.10;;;-4.20;98.80;;;;;;5020683;28;20112;-78
2024/01/10 00:13:31;;;;;;;0.10;0.10;;;-4.20;98.80;;;;;;5022681;28;20048;-78
2024/01/10 00:15:58;;;;;;;0.17;0.17;;;-4.30;98.90;;;;;;5027974;28;20021;-78
2024/01/10 00:18:24;;;;;;;0.20;0.20;;;-4.20;98.90;;;;;;5022871;28;20065;-78
2024/01/10 00:20:53;;;;;;;0.20;0.20;;;-4.20;98.80;;;;;;5026629;28;20029;-78
2024/01/10 00:23:20;;;;;;;0.10;0.10;;;-4.10;98.70;;;;;;5016524;28;20037;-78
2024/01/10 00:25:46;;;;;;;0.10;0.10;;;-4.10;98.60;;;;;;5021943;28;20029;-78
2024/01/10 00:28:11;;;;;;;0.30;0.30;;;-4.00;98.50;;;;;;5022614;28;20034;-78
2024/01/10 00:30:38;;;;;;;0.10;0.10;;;-3.90;98.30;;;;;;5011883;28;20036;-78
2024/01/10 00:33:04;;;;;;;0.10;0.10;;;-3.90;98.20;;;;;;5026429;28;20036;-78
2024/01/10 00:35:30;;;;;;;0.20;0.20;;;-3.80;98.00;;;;;;5022491;28;20683;-78
2024/01/10 00:37:56;;;;;;;0.10;0.10;;;-3.70;97.80;;;;;;5025344;28;20098;-78
2024/01/10 00:40:21;;;;;;;0.10;0.10;;;-3.70;97.70;;;;;;5020336;28;20272;-78
2024/01/10 00:42:47;;;;;;;0.20;0.20;;;-3.70;97.50;;;;;;5017058;28;20595;-78
2024/01/10 00:45:13;;;;;;;0.10;0.10;;;-3.70;97.70;;;;;;5021085;28;20037;-78
2024/01/10 00:47:39;;;;;;;0.13;0.13;;;-3.60;97.70;;;;;;5022330;28;20029;-78
2024/01/10 00:50:05;;;;;;;0.10;0.10;;;-3.70;97.60;;;;;;5021640;28;20033;-78
2024/01/10 00:52:31;;;;;;;0.20;0.20;;;-3.70;97.90;;;;;;5021855;28;20033;-78
2024/01/10 00:54:56;;;;;;;0.10;0.10;;;-3.80;98.00;;;;;;5020925;28;20095;-78
2024/01/10 00:57:22;;;;;;;0.10;0.10;;;-3.80;98.00;;;;;;5021515;28;20496;-78
2024/01/10 00:59:48;;;;;;;0.10;0.10;;;-3.80;98.20;;;;;;5020674;28;20056;-78
2024/01/10 01:02:13;;;;;;;0.95;0.95;;;-3.80;98.10;;;;;;5021710;28;20060;-78
2024/01/10 01:04:39;;;;;;;0.10;0.10;;;-3.80;98.20;;;;;;5022693;28;20021;-78
2024/01/10 01:07:04;;;;;;;0.10;0.10;;;-3.70;98.00;;;;;;5023068;28;20037;-79
2024/01/10 01:09:30;;;;;;;0.10;0.10;;;-3.80;98.00;;;;;;5021724;28;20040;-79
2024/01/10 01:11:56;;;;;;;0.10;0.10;;;-3.70;97.90;;;;;;5020044;28;20037;-78
2024/01/10 01:14:21;;;;;;;1.10;0.97;;;-3.80;98.10;;;;;;5020567;28;20447;-77
2024/01/10 01:16:47;;;;;;;0.07;0.07;;;-3.80;98.30;;;;;;5028364;28;20025;-78
2024/01/10 01:19:13;;;;;;;0.10;0.10;;;-3.90;98.30;;;;;;5021320;28;20022;-78
2024/01/10 01:21:38;;;;;;;0.10;0.10;;;-3.80;98.40;;;;;;5021211;28;20034;-78
2024/01/10 01:24:04;;;;;;;0.85;0.85;;;-3.80;98.30;;;;;;5017872;28;20060;-78
2024/01/10 01:26:30;;;;;;;0.10;0.10;;;-3.80;98.20;;;;;;5020294;28;20061;-77
2024/01/10 01:28:55;;;;;;;0.10;0.10;;;-3.80;98.20;;;;;;5021443;28;20124;-78
2024/01/10 01:31:21;;;;;;;0.32;0.32;;;-3.80;98.00;;;;;;5021227;28;20048;-78
2024/01/10 01:33:47;;;;;;;0.10;0.10;;;-3.80;97.80;;;;;;5022311;28;20792;-78
2024/01/10 01:36:12;;;;;;;0.10;0.10;;;-3.70;97.90;;;;;;5020863;28;20060;-78
2024/01/10 01:38:38;;;;;;;2.17;2.08;;;-3.70;97.90;;;;;;5024682;28;20040;-79
2024/01/10 01:41:05;;;;;;;0.10;0.10;;;-3.70;97.70;;;;;;5020007;28;20049;-77
2024/01/10 01:43:32;;;;;;;0.10;0.10;;;-3.70;97.80;;;;;;5019743;28;20439;-78
2024/01/10 01:45:57;;;;;;;0.10;0.10;;;-3.60;97.60;;;;;;5011325;28;20030;-78
2024/01/10 01:48:25;;;;;;;0.10;0.10;;;-3.70;97.50;;;;;;5021289;28;20416;-78
2024/01/10 01:50:58;;;;;;;0.10;0.10;;;-3.60;97.50;;;;;;5018185;28;20037;-77
2024/01/10 01:53:24;;;;;;;0.10;0.10;;;-3.50;97.30;;;;;;5021600;28;20401;-77
2024/01/10 01:55:50;;;;;;;0.10;0.10;;;-3.60;97.20;;;;;;5020686;28;20072;-77
2024/01/10 01:58:16;;;;;;;0.10;0.10;;;-3.50;97.10;;;;;;5023715;28;20552;-77
2024/01/10 02:00:43;;;;;;;0.10;0.10;;;-3.50;97.10;;;;;;5018604;28;20269;-78
2024/01/10 02:03:09;;;;;;;0.10;0.10;;;-3.50;97.10;;;;;;5024921;28;20624;-77
2024/01/10 02:05:36;;;;;;;0.10;0.10;;;-3.50;97.20;;;;;;5023494;28;20131;-77
2024/01/10 02:08:02;;;;;;;0.30;0.30;;;-3.50;97.00;;;;;;5024900;28;20477;-77
2024/01/10 02:10:28;;;;;;;0.10;0.10;;;-3.40;96.90;;;;;;5024180;28;20030;-78
2024/01/10 02:12:53;;;;;;;0.10;0.10;;;-3.40;96.80;;;;;;5025873;28;20264;-78
2024/01/10 02:15:19;;;;;;;0.10;0.10;;;-3.40;96.90;;;;;;5024029;28;20060;-77
2024/01/10 02:17:45;;;;;;;0.10;0.10;;;-3.40;96.80;;;;;;5026357;28;20132;-77
2024/01/10 02:20:18;;;;;;;2.37;1.60;;;-3.40;96.70;;;;;;5022559;28;20477;-77
2024/01/10 02:22:44;;;;;;;0.10;0.10;;;-3.40;96.70;;;;;;5020712;28;20509;-77
2024/01/10 02:25:11;;;;;;;0.10;0.10;;;-3.40;96.90;;;;;;5022992;28;20037;-77
2024/01/10 02:27:37;;;;;;;0.43;0.43;;;-3.30;96.80;;;;;;5016408;28;20026;-78
2024/01/10 02:30:04;;;;;;;0.10;0.10;;;-3.30;96.60;;;;;;5018397;28;20079;-78
2024/01/10 02:32:30;;;;;;;;;;;-3.30;96.70;;;;;;5023930;28;20098;-77
2024/01/10 02:34:55;;;;;;;2.37;2.23;;;-3.30;96.70;;;;;;5024054;28;20537;-77
2024/01/10 02:37:21;;;;;;;0.10;0.10;;;-3.30;96.50;;;;;;5024586;28;20037;-76
2024/01/10 02:39:47;;;;;;;0.10;0.10;;;-3.20;96.60;;;;;;5025850;28;20056;-77
2024/01/10 02:42:12;;;;;;;0.10;0.10;;;-3.20;96.30;;;;;;5022402;28;20052;-77
2024/01/10 02:44:38;;;;;;;0.10;0.10;;;-3.20;96.30;;;;;;5022967;28;20079;-77
2024/01/10 02:47:05;;;;;;;0.20;0.20;;;-3.20;96.10;;;;;;5030559;28;20116;-77
2024/01/10 02:49:30;;;;;;;0.10;0.10;;;-3.20;95.80;;;;;;5026663;28;20060;-77
2024/01/10 02:51:56;;;;;;;0.10;0.10;;;-3.20;95.70;;;;;;5027607;28;20041;-77
2024/01/10 02:54:22;;;;;;;0.10;0.10;;;-3.20;96.00;;;;;;5024138;28;20060;-77
2024/01/10 02:56:47;;;;;;;0.10;0.10;;;-3.20;96.00;;;;;;5027800;28;20119;-78
2024/01/10 02:59:13;;;;;;;1.50;0.93;;;-3.20;95.90;;;;;;5019578;28;20571;-78
2024/01/10 03:01:39;;;;;;;0.60;0.60;;;-3.10;96.00;;;;;;5022924;28;20033;-78
2024/01/10 03:04:04;;;;;;;1.10;1.02;;;-3.10;95.70;;;;;;5020030;28;20021;-78
2024/01/10 03:06:30;;;;;;;0.10;0.10;;;-3.10;95.90;;;;;;5024008;28;20124;-78
2024/01/10 03:08:56;;;;;;;0.10;0.10;;;-3.20;96.00;;;;;;5023110;28;20163;-77
2024/01/10 03:11:21;;;;;;;0.10;0.10;;;-3.20;96.00;;;;;;5023151;28;20820;-77
2024/01/10 03:13:49;;;;;;;0.10;0.10;;;-3.20;96.00;;;;;;5023453;28;20042;-77
2024/01/10 03:16:15;;;;;;;0.10;0.10;;;-3.10;95.90;;;;;;5021169;28;20037;-77
2024/01/10 03:18:41;;;;;;;2.33;1.10;;;-3.10;95.80;;;;;;5018403;28;20086;-77
2024/01/10 03:21:07;;;;;;;0.23;0.23;;;-3.20;95.80;;;;;;5022750;28;20029;-77
2024/01/10 03:23:32;;;;;;;0.10;0.10;;;-3.10;95.90;;;;;;5023047;28;20469;-77
2024/01/10 03:25:58;;;;;;;0.15;0.15;;;-3.10;95.70;;;;;;5023060;28;20773;-77
2024/01/10 03:28:24;;;;;;;0.10;0.10;;;-3.10;95.50;;;;;;5023316;28;20038;-77
2024/01/10 03:30:49;;;;;;;0.10;0.10;;;-3.00;95.80;;;;;;5022591;28;20037;-77
2024/01/10 03:33:15;;;;;;;0.10;0.10;;;-3.10;95.80;;;;;;5028949;28;20036;-77
2024/01/10 03:35:41;;;;;;;0.70;0.65;;;-3.10;95.90;;;;;;5021991;28;20025;-77
2024/01/10 03:38:08;;;;;;;0.10;0.10;;;-3.10;95.70;;;;;;5022573;28;20032;-77
2024/01/10 03:40:34;;;;;;;0.10;0.10;;;-3.10;95.60;;;;;;5022651;28;20041;-77
2024/01/10 03:43:00;;;;;;;0.10;0.10;;;-3.10;95.60;;;;;;5021692;28;20104;-76
2024/01/10 03:45:25;;;;;;;2.17;2.08;;;-3.10;95.50;;;;;;5024315;28;20274;-77
2024/01/10 03:47:51;;;;;;;0.10;0.10;;;-3.00;95.60;;;;;;5022672;28;20044;-77
2024/01/10 03:50:19;;;;;;;0.10;0.10;;;-3.10;95.40;;;;;;5026094;28;20071;-77
2024/01/10 03:52:45;;;;;;;0.30;0.30;;;-3.10;95.60;;;;;;5024487;28;20037;-78
2024/01/10 03:55:12;;;;;;;0.10;0.10;;;-3.10;95.40;;;;;;5021683;28;20025;-77
2024/01/10 03:57:39;;;;;;;0.10;0.10;;;-3.00;95.40;;;;;;5020468;28;20257;-78
2024/01/10 04:00:06;;;;;;;0.10;0.10;;;-3.00;95.30;;;;;;5021563;28;20088;-78
2024/01/10 04:02:32;;;;;;;0.40;0.40;;;-2.90;94.90;;;;;;5018973;28;20051;-77
2024/01/10 04:04:58;;;;;;;0.10;0.10;;;-2.90;94.80;;;;;;5013251;28;20157;-78
2024/01/10 04:07:23;;;;;;;0.10;0.10;;;-2.90;94.40;;;;;;5037236;28;20030;-78
2024/01/10 04:09:49;;;;;;;0.10;0.10;;;-2.90;94.10;;;;;;5022333;28;20029;-77
2024/01/10 04:12:15;;;;;;;0.10;0.10;;;-2.80;93.90;;;;;;5022842;28;20037;-77
2024/01/10 04:14:40;;;;;;;0.10;0.10;;;-2.80;93.60;;;;;;5022195;28;20719;-77
2024/01/10 04:17:06;;;;;;;0.10;0.10;;;-2.90;93.60;;;;;;5024033;28;20029;-77
2024/01/10 04:19:32;;;;;;;0.10;0.10;;;-3.00;93.50;;;;;;5022107;28;20040;-77
2024/01/10 04:21:59;;;;;;;0.20;0.20;;;-3.00;94.20;;;;;;5022268;28;20276;-77
2024/01/10 04:24:25;;;;;;;0.10;0.10;;;-3.10;93.70;;;;;;5022063;28;20128;-77
2024/01/10 04:26:50;;;;;;;0.10;0.10;;;-3.10;93.90;;;;;;5021969;28;20047;-77
2024/01/10 04:29:16;;;;;;;0.10;0.10;;;-3.10;93.70;;;;;;5017791;28;20093;-77
2024/01/10 04:31:42;;;;;;;0.10;0.10;;;-3.00;93.80;;;;;;5015834;28;20477;-77
2024/01/10 04:34:08;;;;;;;0.10;0.10;;;-3.00;93.70;;;;;;5020940;28;20036;-77
2024/01/10 04:36:33;;;;;;;0.10;0.10;;;-3.00;93.80;;;;;;5021817;28;20590;-77
2024/01/10 04:38:59;;;;;;;0.30;0.30;;;-2.90;93.70;;;;;;5021082;28;20210;-77
2024/01/10 04:41:25;;;;;;;0.52;0.52;;;-2.90;93.70;;;;;;5014513;28;20064;-77
2024/01/10 04:43:51;;;;;;;0.75;0.75;;;-2.90;93.40;;;;;;5019920;28;21039;-77
2024/01/10 04:46:17;;;;;;;0.10;0.10;;;-2.90;93.50;;;;;;5019724;28;20022;-77
2024/01/10 04:48:42;;;;;;;0.10;0.10;;;-2.80;93.50;;;;;;5017253;28;20041;-77
2024/01/10 04:51:08;;;;;;;0.20;0.20;;;-2.80;93.40;;;;;;5016840;28;20061;-77
2024/01/10 04:53:34;;;;;;;0.10;0.10;;;-2.70;93.30;;;;;;5019417;28;20040;-77
2024/01/10 04:56:00;;;;;;;0.25;0.25;;;-2.70;93.20;;;;;;5015268;28;20031;-77
2024/01/10 04:58:25;;;;;;;0.10;0.10;;;-2.70;93.00;;;;;;5018599;28;20634;-76
2024/01/10 05:00:51;;;;;;;0.10;0.10;;;-2.70;93.20;;;;;;5019489;28;20035;-77
2024/01/10 05:03:17;;;;;;;0.10;0.10;;;-2.70;93.50;;;;;;5021582;28;20440;-77
2024/01/10 05:05:42;;;;;;;0.10;0.10;;;-2.70;93.30;;;;;;5018466;28;20030;-78
2024/01/10 05:08:08;;;;;;;0.10;0.10;;;-2.70;93.20;;;;;;5021550;28;20521;-77
2024/01/10 05:10:34;;;;;;;0.10;0.10;;;-2.70;93.60;;;;;;5019711;28;20164;-77
2024/01/10 05:12:59;;;;;;;0.10;0.10;;;-2.70;93.30;;;;;;5021873;28;20044;-77
2024/01/10 05:15:25;;;;;;;0.10;0.10;;;-2.80;93.00;;;;;;5019287;28;20049;-77
2024/01/10 05:17:50;;;;;;;0.20;0.20;;;-2.70;93.10;;;;;;5021287;28;20437;-77
2024/01/10 05:20:16;;;;;;;0.10;0.10;;;-2.70;92.60;;;;;;5020486;28;20048;-77
2024/01/10 05:22:42;;;;;;;0.10;0.10;;;-2.70;92.70;;;;;;5014579;28;20041;-77
2024/01/10 05:25:08;;;;;;;0.10;0.10;;;-2.70;92.70;;;;;;5022057;28;20029;-77
2024/01/10 05:27:33;;;;;;;0.10;0.10;;;-2.60;92.70;;;;;;5019830;28;20033;-77
2024/01/10 05:29:59;;;;;;;0.10;0.10;;;-2.60;92.80;;;;;;5023814;28;20031;-77
2024/01/10 05:32:26;;;;;;;0.30;0.30;;;-2.60;92.50;;;;;;5023976;28;20420;-77
2024/01/10 05:34:52;;;;;;;0.10;0.10;;;-2.60;92.30;;;;;;5025589;28;20637;-77
2024/01/10 05:37:18;;;;;;;0.40;0.40;;;-2.60;92.50;;;;;;5025694;28;20075;-77
2024/01/10 05:39:44;;;;;;;0.10;0.10;;;-2.50;92.00;;;;;;5025802;28;20037;-78
2024/01/10 05:42:09;;;;;;;0.17;0.17;;;-2.50;91.80;;;;;;5024932;28;20356;-79
2024/01/10 05:44:35;;;;;;;6.10;1.70;;;-2.50;91.80;;;;;;5025021;28;20403;-79
2024/01/10 05:47:01;;;;;;;0.10;0.10;;;-2.50;91.40;;;;;;5023265;28;20021;-79
2024/01/10 05:49:26;;;;;;;0.10;0.10;;;-2.50;91.50;;;;;;5025205;28;20033;-79
2024/01/10 05:51:52;;;;;;;0.10;0.10;;;-2.50;91.50;;;;;;5017886;28;20041;-79
2024/01/10 05:54:18;;;;;;;0.10;0.10;;;-2.50;91.80;;;;;;5024118;28;20065;-79
2024/01/10 05:56:44;;;;;;;0.10;0.10;;;-2.60;91.80;;;;;;5027487;28;20112;-77
2024/01/10 05:59:13;;;;;;;0.10;0.10;;;-2.60;91.80;;;;;;5021847;28;20804;-77
2024/01/10 06:01:39;;;;;;;0.10;0.10;;;-2.60;91.90;;;;;;5029755;28;20059;-77
2024/01/10 06:04:05;;;;;;;0.30;0.30;;;-2.60;91.70;;;;;;5020713;28;20025;-77
2024/01/10 06:06:32;;;;;;;0.10;0.10;;;-2.60;91.80;;;;;;5018893;28;20037;-78
2024/01/10 06:08:58;;;;;;;0.10;0.10;;;-2.60;91.90;;;;;;5031287;28;20082;-78
2024/01/10 06:11:23;;;;;;;0.10;0.10;;;-2.50;91.80;;;;;;5021509;28;20042;-79
2024/01/10 06:13:49;;;;;;;0.10;0.10;;;-2.50;91.50;;;;;;5029488;28;20094;-79
2024/01/10 06:16:15;;;;;;;0.10;0.10;;;-2.50;91.50;;;;;;5024469;28;20037;-79
2024/01/10 06:18:41;;;;;;;0.10;0.10;;;-2.50;91.70;;;;;;5024010;28;20693;-79
2024/01/10 06:21:06;;;;;;;0.10;0.10;;;-2.40;91.70;;;;;;5023037;28;20033;-79
2024/01/10 06:23:32;;;;;;;0.10;0.10;;;-2.40;91.70;;;;;;5022287;28;20056;-78
2024/01/10 06:25:58;;;;;;;0.17;0.17;;;-2.30;91.40;;;;;;5029247;28;20136;-78
2024/01/10 06:28:23;;;;;;;0.10;0.10;;;-2.30;91.40;;;;;;5024181;28;20036;-77
2024/01/10 06:30:49;;;;;;;0.10;0.10;;;-2.40;91.40;;;;;;5051714;28;20037;-80
2024/01/10 06:33:15;;;;;;;0.10;0.10;;;-2.30;91.10;;;;;;5029430;28;20075;-78
2024/01/10 06:35:44;;;;;;;0.00;0.00;;;-2.30;91.20;;;;;;5022231;28;20033;-79
2024/01/10 06:38:10;;;;;;;0.20;0.20;;;-2.30;91.00;;;;;;5022168;28;20500;-79
2024/01/10 06:40:36;;;;;;;0.10;0.10;;;-2.30;91.30;;;;;;5018508;28;20049;-78
2024/01/10 06:43:03;;;;;;;0.10;0.10;;;-2.30;91.10;;;;;;5020747;28;20496;-78
2024/01/10 06:45:29;;;;;;;0.10;0.10;;;-2.30;90.80;;;;;;5018877;28;20049;-78
2024/01/10 06:47:55;;;;;;;0.10;0.10;;;-2.20;90.90;;;;;;5021661;28;21251;-78
2024/01/10 06:50:21;;;;;;;0.10;0.10;;;-2.10;90.70;;;;;;5018921;28;20034;-77
2024/01/10 06:52:49;;;;;;;0.10;0.10;;;-2.10;90.60;;;;;;5017454;28;20029;-78
2024/01/10 06:55:18;;;;;;;0.10;0.10;;;-2.00;90.50;;;;;;5022800;28;20936;-79
2024/01/10 06:57:44;;;;;;;0.10;0.10;;;-2.00;90.20;;;;;;5021420;28;20026;-79
2024/01/10 07:00:10;;;;;;;0.10;0.10;;;-2.00;90.40;;;;;;5022838;28;20034;-79
2024/01/10 07:02:39;;;;;;;0.10;0.10;;;-2.00;90.20;;;;;;5023518;28;20029;-79
2024/01/10 07:05:09;;;;;;;1.25;1.00;;;-2.10;90.20;;;;;;5022568;28;20030;-77
2024/01/10 07:07:35;;;;;;;0.30;0.30;;;-2.10;90.60;;;;;;5021253;28;20028;-75
2024/01/10 07:10:04;;;;;;;0.13;0.13;;;-2.10;90.90;;;;;;5019702;28;20425;-75
2024/01/10 07:12:31;;;;;;;0.10;0.10;;;-2.10;91.00;;;;;;5007765;28;20025;-75
2024/01/10 07:14:57;;;;;;;1.90;0.65;;;-2.10;90.70;;;;;;5012183;28;20560;-75
2024/01/10 07:17:22;;;;;;;0.10;0.10;;;-2.00;90.60;;;;;;5023701;28;20025;-75
2024/01/10 07:19:48;;;;;;;0.10;0.10;;;-2.00;90.40;;;;;;5012728;28;20033;-75
2024/01/10 07:22:14;;;;;;;0.10;0.10;;;-2.00;90.40;;;;;;5024089;28;20029;-75
2024/01/10 07:24:40;;;;;;;0.40;0.40;;;-1.90;90.50;;;;;;5013718;28;20258;-75
2024/01/10 07:27:07;;;;;;;0.10;0.10;;;-1.80;89.80;;;;;;5022209;28;20037;-75
2024/01/10 07:29:32;;;;;;;0.10;0.10;;;-1.70;89.80;;;;;;5020447;28;20652;-75
2024/01/10 07:31:58;;;;;;;0.52;0.52;;;-1.60;89.70;;;;;;5024651;28;20489;-75
2024/01/10 07:34:23;;;;;;;0.20;0.20;;;-1.60;88.70;;;;;;5023882;28;20460;-75
2024/01/10 07:36:49;;;;;;;0.00;0.00;;;-1.50;87.80;;;;;;5008705;28;20400;-75
2024/01/10 07:39:21;;;;;;;0.10;0.10;;;-1.60;87.80;;;;;;5023025;28;20053;-75
2024/01/10 07:41:49;;;;;;;0.10;0.10;;;-1.70;90.00;;;;;;5009701;28;20050;-75
2024/01/10 07:44:15;;;;;;;0.10;0.10;;;-1.70;90.10;;;;;;5011308;28;20029;-75
2024/01/10 07:46:41;;;;;;;0.10;0.10;;;-1.60;90.10;;;;;;5023275;28;20036;-75
2024/01/10 07:49:07;;;;;;;0.10;0.10;;;-1.60;89.70;;;;;;5022670;28;20555;-75
2024/01/10 07:51:32;;;;;;;1.20;1.20;;;-1.60;90.00;;;;;;5016264;28;20083;-75
2024/01/10 07:53:59;;;;;;;0.10;0.10;;;-1.60;89.50;;;;;;5015925;28;20538;-75
2024/01/10 07:56:25;;;;;;;0.10;0.10;;;-1.60;89.70;;;;;;5023316;28;20030;-75
2024/01/10 07:58:51;;;;;;;0.10;0.10;;;-1.50;90.00;;;;;;5023106;28;20087;-75
2024/01/10 08:01:17;;;;;;;0.10;0.10;;;-1.60;89.90;;;;;;5017794;28;20061;-75
2024/01/10 08:03:43;;;;;;;0.05;0.05;;;-1.40;88.90;;;;;;5018056;28;20354;-75
2024/01/10 08:06:12;;;;;;;0.05;0.05;;;-1.20;87.60;;;;;;5017629;28;20494;-75
2024/01/10 08:08:37;;;;;;;0.45;0.45;;;-0.90;87.10;;;;;;5023406;28;20110;-75
2024/01/10 08:11:03;;;;;;;0.10;0.10;;;-0.80;86.40;;;;;;5022958;28;20488;-75
2024/01/10 08:13:29;;;;;;;0.10;0.10;;;-0.80;85.30;;;;;;5022554;28;20041;-75
2024/01/10 08:15:55;;;;;;;0.10;0.10;;;-0.90;84.40;;;;;;5021528;28;20029;-75
2024/01/10 08:18:20;;;;;;;0.38;0.38;;;-0.90;85.60;;;;;;5028505;28;20040;-75
2024/01/10 08:20:46;;;;;;;0.08;0.08;;;-1.00;86.90;;;;;;5021795;28;20030;-75
2024/01/10 08:23:12;;;;;;;0.05;0.05;;;-1.20;88.10;;;;;;5022517;28;20488;-75
2024/01/10 08:25:38;;;;;;;0.10;0.10;;;-1.40;88.60;;;;;;5022235;28;20099;-75
2024/01/10 08:28:04;;;;;;;0.10;0.10;;;-1.40;89.50;;;;;;5022076;28;20026;-75
2024/01/10 08:30:29;;;;;;;0.10;0.10;;;-1.40;90.20;;;;;;5021771;28;20025;-75
2024/01/10 08:32:55;;;;;;;0.10;0.10;;;-1.50;90.10;;;;;;5026447;28;20060;-75
2024/01/10 08:35:20;;;;;;;0.10;0.10;;;-1.60;90.30;;;;;;5022007;28;20373;-75
2024/01/10 08:37:46;;;;;;;0.10;0.10;;;-1.50;90.40;;;;;;5024799;28;20025;-75
2024/01/10 08:40:14;;;;;;;0.10;0.10;;;-1.40;90.50;;;;;;5021327;28;20024;-75
2024/01/10 08:42:41;;;;;;;0.10;0.10;;;-1.30;90.20;;;;;;5015795;28;20049;-75
2024/01/10 08:45:09;;;;;;;;;;;-1.10;90.60;;;;;;5022434;28;20115;-75
2024/01/10 08:47:38;;;;;;;0.10;0.10;;;-1.10;90.00;;;;;;5021750;28;20090;-75
2024/01/10 08:50:10;;;;;;;0.10;0.10;;;-1.10;90.50;;;;;;5020274;28;20389;-75
2024/01/10 08:52:39;;;;;;;0.55;0.40;;;-1.20;90.30;;;;;;5021563;28;20033;-75
2024/01/10 08:55:06;;;;;;;0.05;0.05;;;-1.10;90.20;;;;;;5022329;28;20030;-75
2024/01/10 08:57:32;;;;;;;0.28;0.28;;;-1.10;90.10;;;;;;5020193;28;20032;-75
2024/01/10 08:59:57;;;;;;;0.32;0.32;;;-1.00;90.00;;;;;;5021403;28;20018;-75
2024/01/10 09:02:24;;;;;;;0.00;0.00;;;-1.00;90.00;;;;;;5021707;28;20037;-75
2024/01/10 09:04:50;;;;;;;0.10;0.10;;;-0.90;90.20;;;;;;5020177;28;20029;-75
2024/01/10 09:07:17;;;;;;;0.20;0.20;;;-0.80;90.00;;;;;;5021082;28;20063;-75
2024/01/10 09:09:43;;;;;;;0.10;0.10;;;-0.80;90.00;;;;;;5003861;28;20054;-75
2024/01/10 09:12:09;;;;;;;0.10;0.10;;;-0.90;90.00;;;;;;5016101;28;20116;-75
2024/01/10 09:14:35;;;;;;;0.10;0.10;;;-0.90;89.50;;;;;;5021542;28;20113;-75
2024/01/10 09:17:02;;;;;;;0.08;0.08;;;-0.90;89.10;;;;;;5033070;28;20049;-75
2024/01/10 09:19:30;;;;;;;0.10;0.10;;;-0.90;88.80;;;;;;5024374;28;20025;-75
2024/01/10 09:21:57;;;;;;;0.10;0.10;;;-0.90;89.10;;;;;;5022747;28;20477;-75
2024/01/10 09:24:23;;;;;;;;;;;-0.90;89.70;;;;;;5021715;28;20502;-75
2024/01/10 09:26:48;;;;;;;0.10;0.10;;;-0.80;88.60;;;;;;5022038;28;20024;-75
2024/01/10 09:29:14;;;;;;;0.10;0.10;;;-0.80;88.80;;;;;;5017165;28;20334;-76
2024/01/10 09:31:40;;;;;;;0.10;0.10;;;-0.70;88.60;;;;;;5020497;28;20103;-75
2024/01/10 09:34:06;;;;;;;0.10;0.10;;;-0.70;88.50;;;;;;5021835;28;20527;-75
2024/01/10 09:36:31;;;;;;;0.10;0.10;;;-0.60;88.50;;;;;;5022046;28;20034;-75
2024/01/10 09:38:57;;;;;;;0.10;0.10;;;-0.60;88.40;;;;;;5020277;28;20057;-75
2024/01/10 09:41:24;;;;;;;0.10;0.10;;;-0.60;88.10;;;;;;5014605;28;20539;-75
2024/01/10 09:43:50;;;;;;;0.00;0.00;;;-0.50;87.60;;;;;;5022165;28;20029;-75
2024/01/10 09:46:19;;;;;;;0.00;0.00;;;-0.60;87.90;;;;;;5021632;28;20029;-75
2024/01/10 09:48:45;;;;;;;0.10;0.10;;;-0.60;88.30;;;;;;5021060;28;20814;-75
2024/01/10 09:51:12;;;;;;;0.10;0.10;;;-0.50;88.10;;;;;;5020770;28;20082;-75
2024/01/10 09:53:44;;;;;;;1.35;0.47;;;-0.50;87.80;;;;;;5021528;28;20167;-75
2024/01/10 09:56:10;;;;;;;0.73;0.68;;;-0.40;87.50;;;;;;5021375;28;20033;-75
2024/01/10 09:58:39;;;;;;;0.33;0.33;;;-0.40;88.10;;;;;;5025924;28;20102;-75
2024/01/10 10:01:06;;;;;;;0.10;0.10;;;-0.30;88.10;;;;;;5021069;28;20343;-75
2024/01/10 10:03:37;;;;;;;0.10;0.10;;;-0.20;87.80;;;;;;5023952;28;20029;-75
2024/01/10 10:06:03;;;;;;;0.20;0.20;;;-0.20;87.50;;;;;;5022649;28;20026;-75
2024/01/10 10:08:29;;;;;;;0.32;0.32;;;-0.10;87.90;;;;;;5021356;28;20516;-75
2024/01/10 10:10:55;;;;;;;0.10;0.10;;;-0.10;87.30;;;;;;5019721;28;20042;-75
2024/01/10 10:13:28;;;;;;;0.10;0.10;;;0.00;87.60;;;;;;5021583;28;20041;-75
2024/01/10 10:16:01;;;;;;;0.20;0.20;;;0.00;87.40;;;;;;5021078;28;20029;-75
2024/01/10 10:18:27;;;;;;;0.10;0.10;;;0.20;86.30;;;;;;5029346;28;20087;-75
2024/01/10 10:21:13;;;;;;;0.10;0.10;;;0.30;85.80;;;;;;5019534;28;20038;-75
2024/01/10 10:23:40;;;;;;;0.20;0.20;;;0.40;84.50;;;;;;5016402;28;20609;-75
2024/01/10 10:26:20;;;;;;;0.25;0.22;;;0.50;84.30;;;;;;5016906;28;20108;-75
2024/01/10 10:28:47;;;;;;;0.30;0.30;;;0.80;83.70;;;;;;5023612;28;20022;-75
2024/01/10 10:31:12;;;;;;;0.10;0.10;;;1.00;82.80;;;;;;5008514;28;20041;-75
2024/01/10 10:33:39;;;;;;;0.05;0.05;;;1.20;82.90;;;;;;5031854;28;20037;-75
2024/01/10 10:36:05;;;;;;;0.00;0.00;;;1.40;81.60;;;;;;5017120;28;20057;-75
2024/01/10 10:38:31;;;;;;;0.10;0.10;;;1.50;80.70;;;;;;5020790;28;20064;-75
2024/01/10 10:40:59;;;;;;;0.70;0.70;;;1.50;80.50;;;;;;5010597;28;20125;-74
2024/01/10 10:43:26;;;;;;;0.10;0.10;;;1.70;80.00;;;;;;5016774;28;20036;-74
2024/01/10 10:45:52;;;;;;;0.00;0.00;;;1.80;79.30;;;;;;5017467;28;20090;-75
2024/01/10 10:48:20;;;;;;;0.00;0.00;;;2.00;78.80;;;;;;5024522;28;20029;-75
2024/01/10 10:51:03;;;;;;;0.10;0.10;;;2.00;79.00;;;;;;5011213;28;20104;-75
2024/01/10 10:53:30;;;;;;;0.10;0.10;;;1.90;78.80;;;;;;5022254;28;20492;-75
2024/01/10 10:55:59;;;;;;;0.10;0.10;;;1.70;79.30;;;;;;5024029;28;20032;-75
2024/01/10 10:58:24;;;;;;;0.10;0.10;;;1.60;79.00;;;;;;5019359;28;20021;-75
2024/01/10 11:00:51;;;;;;;1.25;0.80;;;1.50;79.80;;;;;;5032018;28;20148;-74
2024/01/10 11:03:18;;;;;;;0.13;0.13;;;1.50;80.10;;;;;;5021864;28;20056;-74
2024/01/10 11:05:45;;;;;;;0.10;0.10;;;1.50;80.70;;;;;;5021691;28;20053;-74
2024/01/10 11:08:16;;;;;;;0.10;0.10;;;1.50;81.40;;;;;;5023982;28;20029;-74
2024/01/10 11:10:43;;;;;;;0.17;0.17;;;1.50;81.00;;;;;;5023356;28;20033;-75
2024/01/10 11:13:27;;;;;;;0.10;0.10;;;1.50;79.80;;;;;;5024067;28;20040;-74
2024/01/10 11:16:13;;;;;;;0.10;0.10;;;1.60;80.00;;;;;;5023200;28;20052;-74
2024/01/10 11:18:52;;;;;;;;;;;1.60;80.60;;;;;;5019443;28;20033;-74
2024/01/10 11:21:44;;;;;;;0.22;0.22;;;1.60;80.20;;;;;;5013995;28;19915;-74
2024/01/10 11:24:10;;;;;;;0.10;0.10;;;1.60;79.70;;;;;;5017533;28;20029;-74
2024/01/10 11:26:38;;;;;;;0.10;0.10;;;1.80;80.00;;;;;;5017619;28;20554;-74
2024/01/10 11:29:05;;;;;;;0.10;0.10;;;1.80;78.70;;;;;;5018369;28;20057;-74
2024/01/10 11:31:32;;;;;;;0.10;0.10;;;2.00;78.20;;;;;;5017989;28;20404;-75
2024/01/10 11:34:00;;;;;;;0.10;0.10;;;2.10;78.10;;;;;;5031009;28;20086;-74
2024/01/10 11:36:26;;;;;;;0.10;0.10;;;2.20;77.60;;;;;;5013856;28;20783;-74
2024/01/10 11:38:53;;;;;;;0.10;0.10;;;2.10;76.70;;;;;;5022779;28;20029;-74
2024/01/10 11:41:26;;;;;;;0.10;0.10;;;2.10;76.70;;;;;;5010739;28;20056;-74
2024/01/10 11:44:28;;;;;;;0.10;0.10;;;2.20;77.70;;;;;;5023466;28;20614;-74
2024/01/10 11:46:55;;;;;;;0.20;0.20;;;2.20;76.30;;;;;;5051404;28;20056;-74
2024/01/10 11:49:21;;;;;;;0.63;0.63;;;2.20;76.60;;;;;;5023288;28;20069;-74
2024/01/10 11:51:49;;;;;;;;;;;2.10;76.40;;;;;;5020635;28;20065;-74
2024/01/10 11:54:42;;;;;;;0.10;0.10;;;2.10;77.00;;;;;;5022425;28;19936;-74
2024/01/10 11:57:12;;;;;;;0.20;0.20;;;2.00;77.40;;;;;;5023118;28;20025;-74
2024/01/10 11:59:43;;;;;;;0.10;0.10;;;2.00;78.30;;;;;;5023098;28;20022;-74
2024/01/10 12:02:09;;;;;;;0.10;0.10;;;2.00;78.60;;;;;;5023794;28;20148;-74
2024/01/10 12:04:34;;;;;;;0.10;0.10;;;2.00;78.50;;;;;;5018721;28;20069;-74
2024/01/10 12:07:03;;;;;;;0.10;0.10;;;2.00;78.70;;;;;;5018707;28;20029;-74
2024/01/10 12:09:30;;;;;;;0.10;0.10;;;2.10;78.60;;;;;;5023007;28;20567;-74
2024/01/10 12:11:56;;;;;;;0.10;0.10;;;2.20;78.80;;;;;;5022912;28;20547;-74
2024/01/10 12:14:21;;;;;;;0.10;0.10;;;2.30;77.80;;;;;;5022532;28;20030;-74
2024/01/10 12:16:48;;;;;;;0.00;0.00;;;2.40;77.70;;;;;;5028266;28;20021;-74
2024/01/10 12:19:13;;;;;;;0.10;0.10;;;2.40;78.00;;;;;;5022841;28;20771;-74
2024/01/10 12:21:39;;;;;;;0.10;0.10;;;2.40;76.70;;;;;;5012687;28;20344;-74
2024/01/10 12:24:08;;;;;;;0.13;0.13;;;2.40;77.80;;;;;;5022817;28;20031;-74
2024/01/10 12:26:35;;;;;;;0.10;0.10;;;2.30;78.00;;;;;;5022732;28;20040;-74
2024/01/10 12:29:04;;;;;;;0.10;0.10;;;2.40;78.00;;;;;;5022553;28;20026;-75
2024/01/10 12:31:30;;;;;;;0.10;0.10;;;2.40;77.80;;;;;;5021923;28;20030;-74
2024/01/10 12:33:57;;;;;;;0.20;0.20;;;2.40;77.50;;;;;;5027485;28;20128;-74
2024/01/10 12:36:22;;;;;;;0.20;0.20;;;2.30;77.60;;;;;;5017873;28;20107;-74
2024/01/10 12:38:48;;;;;;;0.10;0.10;;;2.40;76.40;;;;;;5024733;28;20607;-74
2024/01/10 12:41:19;;;;;;;0.10;0.10;;;2.60;76.90;;;;;;5014669;28;20046;-74
2024/01/10 12:43:57;;;;;;;0.43;0.43;;;2.70;76.00;;;;;;5019441;28;20525;-74
2024/01/10 12:46:25;;;;;;;0.30;0.30;;;2.90;75.30;;;;;;5019858;28;20048;-74
2024/01/10 12:49:06;;;;;;;0.10;0.10;;;2.70;74.90;;;;;;5022151;28;20068;-74